sensor_id;sensor_type;location;lat;lon;timestamp;pressure;altitude;pressure_sealevel;temperature;humidity
78149;BME280;67396;42.664;23.382;2023-08-17T00:01:19;95062.97;;;22.68;60.48
78149;BME280;67396;42.664;23.382;2023-08-17T00:03:45;95067.00;;;22.67;60.54
78149;BME280;67396;42.664;23.382;2023-08-17T00:06:10;95063.75;;;22.68;60.38
78149;BME280;67396;42.664;23.382;2023-08-17T00:08:36;95067.91;;;22.64;60.63
78149;BME280;67396;42.664;23.382;2023-08-17T00:11:01;95059.34;;;22.58;60.92
78149;BME280;67396;42.664;23.382;2023-08-17T00:13:26;95064.28;;;22.54;60.84
78149;BME280;67396;42.664;23.382;2023-08-17T00:15:52;95050.97;;;22.27;61.49
78149;BME280;67396;42.664;23.382;2023-08-17T00:18:17;95058.81;;;22.10;62.30
78149;BME280;67396;42.664;23.382;2023-08-17T00:20:43;95064.34;;;22.01;62.35
78149;BME280;67396;42.664;23.382;2023-08-17T00:23:10;95054.84;;;21.99;62.17
78149;BME280;67396;42.664;23.382;2023-08-17T00:25:35;95063.63;;;21.88;62.57
78149;BME280;67396;42.664;23.382;2023-08-17T00:28:00;95056.88;;;21.98;62.07
78149;BME280;67396;42.664;23.382;2023-08-17T00:30:26;95070.59;;;22.05;61.56
78149;BME280;67396;42.664;23.382;2023-08-17T00:32:51;95068.06;;;21.98;61.34
78149;BME280;67396;42.664;23.382;2023-08-17T00:35:17;95071.03;;;22.04;61.13
78149;BME280;67396;42.664;23.382;2023-08-17T00:37:43;95064.91;;;21.96;60.70
78149;BME280;67396;42.664;23.382;2023-08-17T00:40:09;95051.78;;;21.84;60.79
78149;BME280;67396;42.664;23.382;2023-08-17T00:42:34;95058.06;;;21.75;60.70
78149;BME280;67396;42.664;23.382;2023-08-17T00:44:59;95054.50;;;21.53;61.01
78149;BME280;67396;42.664;23.382;2023-08-17T00:47:25;95055.22;;;21.45;61.12
78149;BME280;67396;42.664;23.382;2023-08-17T00:49:51;95051.50;;;21.48;59.96
78149;BME280;67396;42.664;23.382;2023-08-17T00:52:16;95052.91;;;21.30;59.83
78149;BME280;67396;42.664;23.382;2023-08-17T00:54:42;95045.59;;;21.46;58.52
78149;BME280;67396;42.664;23.382;2023-08-17T00:57:08;95047.72;;;21.42;58.48
78149;BME280;67396;42.664;23.382;2023-08-17T00:59:34;95047.47;;;21.49;58.34
78149;BME280;67396;42.664;23.382;2023-08-17T01:02:01;95050.59;;;21.51;58.20
78149;BME280;67396;42.664;23.382;2023-08-17T01:04:27;95043.34;;;21.53;57.63
78149;BME280;67396;42.664;23.382;2023-08-17T01:06:52;95050.59;;;21.51;57.52
78149;BME280;67396;42.664;23.382;2023-08-17T01:09:18;95052.66;;;21.37;58.15
78149;BME280;67396;42.664;23.382;2023-08-17T01:12:16;95045.00;;;21.51;57.78
78149;BME280;67396;42.664;23.382;2023-08-17T01:17:40;95044.91;;;21.54;57.75
78149;BME280;67396;42.664;23.382;2023-08-17T01:20:08;95052.72;;;21.47;57.60
78149;BME280;67396;42.664;23.382;2023-08-17T01:22:40;95042.56;;;21.53;57.34
78149;BME280;67396;42.664;23.382;2023-08-17T01:25:06;95046.91;;;21.54;57.18
78149;BME280;67396;42.664;23.382;2023-08-17T01:27:45;95044.19;;;21.63;56.44
78149;BME280;67396;42.664;23.382;2023-08-17T01:30:16;95049.19;;;21.68;55.80
78149;BME280;67396;42.664;23.382;2023-08-17T01:32:48;95043.84;;;21.61;56.17
78149;BME280;67396;42.664;23.382;2023-08-17T01:35:16;95037.50;;;21.60;55.39
78149;BME280;67396;42.664;23.382;2023-08-17T01:37:44;95042.03;;;21.67;55.46
78149;BME280;67396;42.664;23.382;2023-08-17T01:40:12;95037.28;;;21.76;54.52
78149;BME280;67396;42.664;23.382;2023-08-17T01:42:39;95045.84;;;21.82;54.53
78149;BME280;67396;42.664;23.382;2023-08-17T01:45:05;95040.03;;;21.89;54.05
78149;BME280;67396;42.664;23.382;2023-08-17T01:47:31;95044.44;;;21.77;53.97
78149;BME280;67396;42.664;23.382;2023-08-17T01:49:56;95041.38;;;21.85;53.74
78149;BME280;67396;42.664;23.382;2023-08-17T01:52:26;95045.00;;;21.94;53.14
78149;BME280;67396;42.664;23.382;2023-08-17T01:54:53;95049.84;;;21.72;53.81
78149;BME280;67396;42.664;23.382;2023-08-17T01:57:18;95043.19;;;21.57;54.29
78149;BME280;67396;42.664;23.382;2023-08-17T01:59:43;95047.94;;;21.69;53.73
78149;BME280;67396;42.664;23.382;2023-08-17T02:02:09;95043.25;;;21.66;53.57
78149;BME280;67396;42.664;23.382;2023-08-17T02:04:36;95041.69;;;21.65;53.28
78149;BME280;67396;42.664;23.382;2023-08-17T02:07:02;95039.94;;;21.58;53.43
78149;BME280;67396;42.664;23.382;2023-08-17T02:09:27;95044.59;;;21.39;54.03
78149;BME280;67396;42.664;23.382;2023-08-17T02:11:53;95038.69;;;21.37;54.01
78149;BME280;67396;42.664;23.382;2023-08-17T02:14:18;95040.66;;;21.02;54.87
78149;BME280;67396;42.664;23.382;2023-08-17T02:16:43;95039.34;;;21.07;55.20
78149;BME280;67396;42.664;23.382;2023-08-17T02:19:09;95036.78;;;21.00;55.48
78149;BME280;67396;42.664;23.382;2023-08-17T02:21:34;95029.84;;;21.04;55.77
78149;BME280;67396;42.664;23.382;2023-08-17T02:24:00;95028.63;;;21.18;55.36
78149;BME280;67396;42.664;23.382;2023-08-17T02:26:25;95030.94;;;21.20;54.92
78149;BME280;67396;42.664;23.382;2023-08-17T02:28:50;95033.16;;;21.25;54.60
78149;BME280;67396;42.664;23.382;2023-08-17T02:31:16;95037.31;;;21.20;54.93
78149;BME280;67396;42.664;23.382;2023-08-17T02:33:41;95031.41;;;21.18;54.86
78149;BME280;67396;42.664;23.382;2023-08-17T02:36:07;95029.41;;;21.06;54.95
78149;BME280;67396;42.664;23.382;2023-08-17T02:38:32;95029.47;;;21.15;54.87
78149;BME280;67396;42.664;23.382;2023-08-17T02:40:58;95031.31;;;21.09;54.75
78149;BME280;67396;42.664;23.382;2023-08-17T02:43:23;95029.41;;;21.06;55.34
78149;BME280;67396;42.664;23.382;2023-08-17T02:45:49;95033.84;;;21.16;54.84
78149;BME280;67396;42.664;23.382;2023-08-17T02:48:14;95029.72;;;21.08;54.68
78149;BME280;67396;42.664;23.382;2023-08-17T02:50:39;95026.06;;;20.98;55.22
78149;BME280;67396;42.664;23.382;2023-08-17T02:53:05;95020.41;;;20.89;55.67
78149;BME280;67396;42.664;23.382;2023-08-17T02:55:30;95021.03;;;20.93;55.70
78149;BME280;67396;42.664;23.382;2023-08-17T02:57:56;95017.13;;;21.03;55.17
78149;BME280;67396;42.664;23.382;2023-08-17T03:00:21;95025.97;;;21.02;55.42
78149;BME280;67396;42.664;23.382;2023-08-17T03:02:47;95016.22;;;21.19;54.80
78149;BME280;67396;42.664;23.382;2023-08-17T03:05:12;95023.56;;;21.26;54.36
78149;BME280;67396;42.664;23.382;2023-08-17T03:07:37;95014.84;;;21.11;55.04
78149;BME280;67396;42.664;23.382;2023-08-17T03:10:03;95020.00;;;21.13;54.69
78149;BME280;67396;42.664;23.382;2023-08-17T03:12:30;95026.84;;;20.99;54.86
78149;BME280;67396;42.664;23.382;2023-08-17T03:14:55;95024.63;;;20.94;54.50
78149;BME280;67396;42.664;23.382;2023-08-17T03:17:21;95023.31;;;20.86;54.74
78149;BME280;67396;42.664;23.382;2023-08-17T03:19:46;95019.78;;;20.73;54.87
78149;BME280;67396;42.664;23.382;2023-08-17T03:22:11;95026.25;;;20.70;54.99
78149;BME280;67396;42.664;23.382;2023-08-17T03:24:37;95024.09;;;20.86;54.48
78149;BME280;67396;42.664;23.382;2023-08-17T03:27:02;95026.97;;;20.95;54.41
78149;BME280;67396;42.664;23.382;2023-08-17T03:29:28;95023.47;;;21.04;53.91
78149;BME280;67396;42.664;23.382;2023-08-17T03:31:53;95029.84;;;21.17;53.46
78149;BME280;67396;42.664;23.382;2023-08-17T03:34:18;95025.34;;;21.20;53.27
78149;BME280;67396;42.664;23.382;2023-08-17T03:36:44;95027.41;;;20.94;53.85
78149;BME280;67396;42.664;23.382;2023-08-17T03:39:09;95023.09;;;20.67;54.81
78149;BME280;67396;42.664;23.382;2023-08-17T03:41:35;95031.28;;;20.75;54.94
78149;BME280;67396;42.664;23.382;2023-08-17T03:44:02;95032.34;;;20.90;54.22
78149;BME280;67396;42.664;23.382;2023-08-17T03:46:29;95029.66;;;20.99;54.45
78149;BME280;67396;42.664;23.382;2023-08-17T03:48:54;95027.28;;;21.10;53.79
78149;BME280;67396;42.664;23.382;2023-08-17T03:51:19;95035.00;;;21.19;53.54
78149;BME280;67396;42.664;23.382;2023-08-17T03:53:45;95036.06;;;21.21;53.29
78149;BME280;67396;42.664;23.382;2023-08-17T03:56:10;95030.72;;;21.27;53.68
78149;BME280;67396;42.664;23.382;2023-08-17T03:58:35;95033.69;;;21.32;53.10
78149;BME280;67396;42.664;23.382;2023-08-17T04:01:01;95036.81;;;21.34;53.48
78149;BME280;67396;42.664;23.382;2023-08-17T04:03:28;95037.34;;;21.42;53.00
78149;BME280;67396;42.664;23.382;2023-08-17T04:05:53;95035.91;;;21.37;53.23
78149;BME280;67396;42.664;23.382;2023-08-17T04:08:19;95041.09;;;21.26;53.09
78149;BME280;67396;42.664;23.382;2023-08-17T04:10:44;95033.94;;;21.25;53.83
78149;BME280;67396;42.664;23.382;2023-08-17T04:13:09;95039.09;;;21.14;53.19
78149;BME280;67396;42.664;23.382;2023-08-17T04:15:35;95041.53;;;21.12;53.20
78149;BME280;67396;42.664;23.382;2023-08-17T04:18:00;95040.16;;;21.29;52.69
78149;BME280;67396;42.664;23.382;2023-08-17T04:20:26;95035.25;;;21.33;52.18
78149;BME280;67396;42.664;23.382;2023-08-17T04:22:51;95043.09;;;21.26;52.61
78149;BME280;67396;42.664;23.382;2023-08-17T04:25:16;95034.38;;;21.36;52.10
78149;BME280;67396;42.664;23.382;2023-08-17T04:27:42;95036.97;;;21.53;51.66
78149;BME280;67396;42.664;23.382;2023-08-17T04:30:08;95038.78;;;21.68;50.82
78149;BME280;67396;42.664;23.382;2023-08-17T04:32:34;95028.84;;;21.67;51.17
78149;BME280;67396;42.664;23.382;2023-08-17T04:34:59;95028.50;;;21.87;50.01
78149;BME280;67396;42.664;23.382;2023-08-17T04:37:24;95028.50;;;21.87;50.14
78149;BME280;67396;42.664;23.382;2023-08-17T04:39:50;95035.38;;;21.95;50.22
78149;BME280;67396;42.664;23.382;2023-08-17T04:42:16;95036.94;;;21.96;49.44
78149;BME280;67396;42.664;23.382;2023-08-17T04:44:42;95038.94;;;22.18;49.60
78149;BME280;67396;42.664;23.382;2023-08-17T04:47:07;95039.31;;;22.60;49.20
78149;BME280;67396;42.664;23.382;2023-08-17T04:49:33;95030.75;;;22.63;48.18
78149;BME280;67396;42.664;23.382;2023-08-17T04:51:58;95039.53;;;22.74;48.14
78149;BME280;67396;42.664;23.382;2023-08-17T04:54:24;95037.69;;;22.89;46.84
78149;BME280;67396;42.664;23.382;2023-08-17T04:56:49;95024.47;;;22.90;46.64
78149;BME280;67396;42.664;23.382;2023-08-17T04:59:15;95027.19;;;23.21;46.02
78149;BME280;67396;42.664;23.382;2023-08-17T05:01:40;95032.81;;;23.39;46.18
78149;BME280;67396;42.664;23.382;2023-08-17T05:04:05;95026.75;;;23.59;44.70
78149;BME280;67396;42.664;23.382;2023-08-17T05:06:31;95033.28;;;23.65;44.29
78149;BME280;67396;42.664;23.382;2023-08-17T05:08:57;95033.44;;;23.80;44.00
78149;BME280;67396;42.664;23.382;2023-08-17T05:11:22;95031.19;;;24.11;43.35
78149;BME280;67396;42.664;23.382;2023-08-17T05:13:49;95029.31;;;24.17;42.45
78149;BME280;67396;42.664;23.382;2023-08-17T05:16:14;95036.66;;;23.96;43.25
78149;BME280;67396;42.664;23.382;2023-08-17T05:18:40;95042.72;;;24.04;43.02
78149;BME280;67396;42.664;23.382;2023-08-17T05:21:05;95033.97;;;24.20;43.44
78149;BME280;67396;42.664;23.382;2023-08-17T05:23:31;95041.72;;;24.44;42.59
78149;BME280;67396;42.664;23.382;2023-08-17T05:25:57;95031.88;;;24.48;43.78
78149;BME280;67396;42.664;23.382;2023-08-17T05:28:22;95041.09;;;24.40;46.09
78149;BME280;67396;42.664;23.382;2023-08-17T05:30:48;95037.34;;;24.43;46.97
78149;BME280;67396;42.664;23.382;2023-08-17T05:33:14;95035.25;;;24.61;46.75
78149;BME280;67396;42.664;23.382;2023-08-17T05:35:39;95038.19;;;24.67;46.60
78149;BME280;67396;42.664;23.382;2023-08-17T05:38:05;95040.06;;;24.70;46.76
78149;BME280;67396;42.664;23.382;2023-08-17T05:40:31;95040.88;;;24.94;45.78
78149;BME280;67396;42.664;23.382;2023-08-17T05:42:57;95046.56;;;25.09;45.37
78149;BME280;67396;42.664;23.382;2023-08-17T05:45:22;95037.66;;;25.34;44.58
78149;BME280;67396;42.664;23.382;2023-08-17T05:47:47;95039.69;;;25.34;44.42
78149;BME280;67396;42.664;23.382;2023-08-17T05:50:13;95041.06;;;25.62;44.09
78149;BME280;67396;42.664;23.382;2023-08-17T05:52:40;95043.72;;;25.95;43.27
78149;BME280;67396;42.664;23.382;2023-08-17T05:55:06;95040.06;;;26.04;42.50
78149;BME280;67396;42.664;23.382;2023-08-17T05:57:32;95043.75;;;26.24;41.76
78149;BME280;67396;42.664;23.382;2023-08-17T05:59:57;95044.16;;;26.32;41.25
78149;BME280;67396;42.664;23.382;2023-08-17T06:02:23;95047.88;;;26.38;40.87
78149;BME280;67396;42.664;23.382;2023-08-17T06:04:48;95050.97;;;26.40;40.83
78149;BME280;67396;42.664;23.382;2023-08-17T06:07:13;95051.44;;;26.39;41.04
78149;BME280;67396;42.664;23.382;2023-08-17T06:09:39;95049.81;;;26.32;41.35
78149;BME280;67396;42.664;23.382;2023-08-17T06:12:05;95041.03;;;26.15;41.29
78149;BME280;67396;42.664;23.382;2023-08-17T06:14:31;95041.63;;;26.05;41.98
78149;BME280;67396;42.664;23.382;2023-08-17T06:16:58;95053.91;;;25.54;42.04
78149;BME280;67396;42.664;23.382;2023-08-17T06:19:23;95048.72;;;25.62;42.66
78149;BME280;67396;42.664;23.382;2023-08-17T06:21:49;95042.72;;;25.69;42.48
78149;BME280;67396;42.664;23.382;2023-08-17T06:24:14;95048.16;;;25.72;42.80
78149;BME280;67396;42.664;23.382;2023-08-17T06:26:39;95044.50;;;25.96;41.38
78149;BME280;67396;42.664;23.382;2023-08-17T06:29:05;95036.25;;;25.77;42.35
78149;BME280;67396;42.664;23.382;2023-08-17T06:31:30;95051.56;;;25.53;42.57
78149;BME280;67396;42.664;23.382;2023-08-17T06:33:56;95049.19;;;25.60;43.10
78149;BME280;67396;42.664;23.382;2023-08-17T06:36:22;95054.75;;;25.69;44.38
78149;BME280;67396;42.664;23.382;2023-08-17T06:38:47;95053.88;;;25.63;44.48
78149;BME280;67396;42.664;23.382;2023-08-17T06:41:13;95055.56;;;25.84;44.79
78149;BME280;67396;42.664;23.382;2023-08-17T06:43:38;95047.63;;;26.12;45.35
78149;BME280;67396;42.664;23.382;2023-08-17T06:46:03;95055.03;;;26.10;45.40
78149;BME280;67396;42.664;23.382;2023-08-17T06:48:29;95053.00;;;25.72;46.51
78149;BME280;67396;42.664;23.382;2023-08-17T06:50:56;95059.44;;;25.87;46.78
78149;BME280;67396;42.664;23.382;2023-08-17T06:53:21;95059.88;;;25.95;45.88
78149;BME280;67396;42.664;23.382;2023-08-17T06:55:47;95058.97;;;25.89;44.65
78149;BME280;67396;42.664;23.382;2023-08-17T06:58:12;95056.06;;;26.12;44.65
78149;BME280;67396;42.664;23.382;2023-08-17T07:00:38;95046.78;;;26.21;45.42
78149;BME280;67396;42.664;23.382;2023-08-17T07:03:06;95048.03;;;26.49;44.80
78149;BME280;67396;42.664;23.382;2023-08-17T07:05:31;95051.34;;;26.63;43.51
78149;BME280;67396;42.664;23.382;2023-08-17T07:07:57;95060.84;;;26.65;43.47
78149;BME280;67396;42.664;23.382;2023-08-17T07:10:24;95058.25;;;26.47;44.00
78149;BME280;67396;42.664;23.382;2023-08-17T07:12:50;95061.63;;;26.66;42.14
78149;BME280;67396;42.664;23.382;2023-08-17T07:15:15;95050.25;;;26.75;43.11
78149;BME280;67396;42.664;23.382;2023-08-17T07:17:40;95061.34;;;27.13;42.85
78149;BME280;67396;42.664;23.382;2023-08-17T07:20:06;95050.09;;;27.33;40.04
78149;BME280;67396;42.664;23.382;2023-08-17T07:22:36;95048.41;;;27.42;40.46
78149;BME280;67396;42.664;23.382;2023-08-17T07:25:02;95048.56;;;27.73;40.89
78149;BME280;67396;42.664;23.382;2023-08-17T07:27:29;95043.72;;;27.99;40.81
78149;BME280;67396;42.664;23.382;2023-08-17T07:29:55;95046.47;;;28.40;38.13
78149;BME280;67396;42.664;23.382;2023-08-17T07:32:21;95040.38;;;28.47;37.40
78149;BME280;67396;42.664;23.382;2023-08-17T07:34:47;95046.63;;;28.88;36.46
78149;BME280;67396;42.664;23.382;2023-08-17T07:37:12;95038.41;;;28.59;34.13
78149;BME280;67396;42.664;23.382;2023-08-17T07:39:38;95041.38;;;29.07;33.32
78149;BME280;67396;42.664;23.382;2023-08-17T07:42:04;95044.31;;;29.29;33.33
78149;BME280;67396;42.664;23.382;2023-08-17T07:44:29;95044.97;;;29.44;31.02
78149;BME280;67396;42.664;23.382;2023-08-17T07:46:57;95044.97;;;29.50;30.18
78149;BME280;67396;42.664;23.382;2023-08-17T07:49:23;95039.13;;;29.65;29.32
78149;BME280;67396;42.664;23.382;2023-08-17T07:51:49;95037.09;;;29.71;30.20
78149;BME280;67396;42.664;23.382;2023-08-17T07:54:14;95040.72;;;29.77;29.87
78149;BME280;67396;42.664;23.382;2023-08-17T07:56:40;95024.84;;;29.96;30.10
78149;BME280;67396;42.664;23.382;2023-08-17T07:59:05;95041.22;;;29.75;30.44
78149;BME280;67396;42.664;23.382;2023-08-17T08:01:31;95030.78;;;29.98;30.42
78149;BME280;67396;42.664;23.382;2023-08-17T08:03:56;95024.59;;;30.00;30.73
78149;BME280;67396;42.664;23.382;2023-08-17T08:06:22;95025.56;;;29.80;30.78
78149;BME280;67396;42.664;23.382;2023-08-17T08:08:48;95028.91;;;29.84;31.23
78149;BME280;67396;42.664;23.382;2023-08-17T08:11:13;95016.63;;;29.98;31.16
78149;BME280;67396;42.664;23.382;2023-08-17T08:13:39;95009.16;;;30.01;31.41
78149;BME280;67396;42.664;23.382;2023-08-17T08:16:05;95019.63;;;29.78;31.77
78149;BME280;67396;42.664;23.382;2023-08-17T08:18:30;95025.06;;;29.81;32.47
78149;BME280;67396;42.664;23.382;2023-08-17T08:20:56;95030.31;;;29.51;32.72
78149;BME280;67396;42.664;23.382;2023-08-17T08:23:21;95013.91;;;29.67;32.69
78149;BME280;67396;42.664;23.382;2023-08-17T08:25:47;95019.50;;;29.50;33.31
78149;BME280;67396;42.664;23.382;2023-08-17T08:28:12;95015.69;;;29.59;33.44
78149;BME280;67396;42.664;23.382;2023-08-17T08:30:37;95023.13;;;29.56;33.18
78149;BME280;67396;42.664;23.382;2023-08-17T08:33:03;95014.13;;;29.46;33.27
78149;BME280;67396;42.664;23.382;2023-08-17T08:35:29;95004.38;;;29.53;33.54
78149;BME280;67396;42.664;23.382;2023-08-17T08:37:54;95023.16;;;29.62;32.91
78149;BME280;67396;42.664;23.382;2023-08-17T08:40:28;95016.47;;;29.65;33.21
78149;BME280;67396;42.664;23.382;2023-08-17T08:42:53;95007.75;;;29.68;33.00
78149;BME280;67396;42.664;23.382;2023-08-17T08:45:19;95013.69;;;29.76;32.62
78149;BME280;67396;42.664;23.382;2023-08-17T08:47:46;95004.19;;;29.79;33.17
78149;BME280;67396;42.664;23.382;2023-08-17T08:50:18;95012.09;;;29.58;33.28
78149;BME280;67396;42.664;23.382;2023-08-17T08:52:50;95000.59;;;29.84;32.89
78149;BME280;67396;42.664;23.382;2023-08-17T08:55:21;94994.44;;;29.91;33.17
78149;BME280;67396;42.664;23.382;2023-08-17T08:57:49;95006.41;;;29.52;33.49
78149;BME280;67396;42.664;23.382;2023-08-17T09:00:16;95000.47;;;29.45;33.79
78149;BME280;67396;42.664;23.382;2023-08-17T09:02:42;94996.44;;;29.74;33.61
78149;BME280;67396;42.664;23.382;2023-08-17T09:05:10;94991.88;;;29.93;32.80
78149;BME280;67396;42.664;23.382;2023-08-17T09:07:37;94992.38;;;29.80;32.96
78149;BME280;67396;42.664;23.382;2023-08-17T09:10:02;94990.22;;;29.64;33.44
78149;BME280;67396;42.664;23.382;2023-08-17T09:12:29;94984.13;;;29.77;33.09
78149;BME280;67396;42.664;23.382;2023-08-17T09:14:55;94985.06;;;29.46;33.73
78149;BME280;67396;42.664;23.382;2023-08-17T09:17:24;94975.25;;;29.41;33.64
78149;BME280;67396;42.664;23.382;2023-08-17T09:19:50;94990.72;;;29.51;33.39
78149;BME280;67396;42.664;23.382;2023-08-17T09:22:23;94969.91;;;29.06;33.68
78149;BME280;67396;42.664;23.382;2023-08-17T09:24:49;94960.59;;;28.95;34.25
78149;BME280;67396;42.664;23.382;2023-08-17T09:27:14;94962.31;;;29.29;33.71
78149;BME280;67396;42.664;23.382;2023-08-17T09:29:42;94952.44;;;29.67;32.50
78149;BME280;67396;42.664;23.382;2023-08-17T09:32:10;94954.59;;;29.95;30.80
78149;BME280;67396;42.664;23.382;2023-08-17T09:34:36;94959.75;;;30.02;30.10
78149;BME280;67396;42.664;23.382;2023-08-17T09:37:05;94943.03;;;30.04;30.58
78149;BME280;67396;42.664;23.382;2023-08-17T09:39:31;94942.25;;;30.14;30.41
78149;BME280;67396;42.664;23.382;2023-08-17T09:41:57;94943.28;;;30.28;29.89
78149;BME280;67396;42.664;23.382;2023-08-17T09:44:22;94942.81;;;30.52;30.15
78149;BME280;67396;42.664;23.382;2023-08-17T09:46:48;94941.47;;;30.08;29.09
78149;BME280;67396;42.664;23.382;2023-08-17T09:49:13;94958.50;;;30.42;29.26
78149;BME280;67396;42.664;23.382;2023-08-17T09:51:45;94931.97;;;30.34;29.06
78149;BME280;67396;42.664;23.382;2023-08-17T09:54:21;94937.09;;;30.02;29.62
78149;BME280;67396;42.664;23.382;2023-08-17T09:56:50;94954.13;;;30.24;29.37
78149;BME280;67396;42.664;23.382;2023-08-17T09:59:15;94937.34;;;30.09;29.61
78149;BME280;67396;42.664;23.382;2023-08-17T10:01:42;94930.16;;;30.19;29.74
78149;BME280;67396;42.664;23.382;2023-08-17T10:04:09;94936.06;;;30.27;29.22
78149;BME280;67396;42.664;23.382;2023-08-17T10:06:36;94918.84;;;30.30;29.21
78149;BME280;67396;42.664;23.382;2023-08-17T10:09:04;94928.59;;;30.35;29.37
78149;BME280;67396;42.664;23.382;2023-08-17T10:11:31;94927.81;;;29.96;29.23
78149;BME280;67396;42.664;23.382;2023-08-17T10:14:02;94921.06;;;29.71;29.37
78149;BME280;67396;42.664;23.382;2023-08-17T10:16:44;94927.72;;;29.51;30.14
78149;BME280;67396;42.664;23.382;2023-08-17T10:22:17;94933.66;;;29.05;30.67
78149;BME280;67396;42.664;23.382;2023-08-17T10:24:44;94921.56;;;28.99;30.75
78149;BME280;67396;42.664;23.382;2023-08-17T10:27:10;94917.22;;;29.03;30.76
78149;BME280;67396;42.664;23.382;2023-08-17T10:29:38;94938.31;;;29.02;30.81
78149;BME280;67396;42.664;23.382;2023-08-17T10:32:05;94912.81;;;28.97;30.50
78149;BME280;67396;42.664;23.382;2023-08-17T10:34:32;94931.06;;;28.96;30.80
78149;BME280;67396;42.664;23.382;2023-08-17T10:36:58;94937.75;;;28.98;30.87
78149;BME280;67396;42.664;23.382;2023-08-17T10:39:27;94920.50;;;28.91;31.57
78149;BME280;67396;42.664;23.382;2023-08-17T10:41:53;94914.09;;;28.96;31.22
78149;BME280;67396;42.664;23.382;2023-08-17T10:44:45;94909.72;;;28.95;31.46
78149;BME280;67396;42.664;23.382;2023-08-17T10:47:26;94901.53;;;28.97;31.60
78149;BME280;67396;42.664;23.382;2023-08-17T10:49:56;94895.91;;;29.02;31.37
78149;BME280;67396;42.664;23.382;2023-08-17T10:52:26;94910.81;;;29.08;31.17
78149;BME280;67396;42.664;23.382;2023-08-17T10:54:53;94893.38;;;29.10;30.95
78149;BME280;67396;42.664;23.382;2023-08-17T10:57:30;94899.03;;;29.10;30.76
78149;BME280;67396;42.664;23.382;2023-08-17T11:02:37;94891.19;;;28.83;32.50
78149;BME280;67396;42.664;23.382;2023-08-17T11:05:03;94888.91;;;28.92;33.02
78149;BME280;67396;42.664;23.382;2023-08-17T11:07:41;94893.78;;;28.92;33.38
78149;BME280;67396;42.664;23.382;2023-08-17T11:12:44;94883.28;;;29.03;33.24
78149;BME280;67396;42.664;23.382;2023-08-17T11:15:09;94890.50;;;29.04;32.91
78149;BME280;67396;42.664;23.382;2023-08-17T11:17:35;94880.47;;;29.03;33.57
78149;BME280;67396;42.664;23.382;2023-08-17T11:20:00;94878.97;;;29.08;33.37
78149;BME280;67396;42.664;23.382;2023-08-17T11:22:27;94876.41;;;29.10;33.42
78149;BME280;67396;42.664;23.382;2023-08-17T11:24:52;94868.94;;;29.07;33.24
78149;BME280;67396;42.664;23.382;2023-08-17T11:27:18;94893.38;;;29.15;32.44
78149;BME280;67396;42.664;23.382;2023-08-17T11:29:45;94873.03;;;29.06;32.42
78149;BME280;67396;42.664;23.382;2023-08-17T11:32:10;94858.91;;;29.06;32.10
78149;BME280;67396;42.664;23.382;2023-08-17T11:34:37;94870.75;;;29.10;32.56
78149;BME280;67396;42.664;23.382;2023-08-17T11:37:04;94864.09;;;29.18;33.00
78149;BME280;67396;42.664;23.382;2023-08-17T11:39:33;94865.59;;;29.14;33.19
78149;BME280;67396;42.664;23.382;2023-08-17T11:42:00;94863.31;;;29.18;33.18
78149;BME280;67396;42.664;23.382;2023-08-17T11:44:25;94865.16;;;29.27;33.38
78149;BME280;67396;42.664;23.382;2023-08-17T11:46:51;94872.31;;;29.22;34.03
78149;BME280;67396;42.664;23.382;2023-08-17T11:49:17;94869.25;;;29.26;33.73
78149;BME280;67396;42.664;23.382;2023-08-17T11:51:42;94857.94;;;29.20;33.91
78149;BME280;67396;42.664;23.382;2023-08-17T11:54:08;94861.00;;;29.16;33.81
78149;BME280;67396;42.664;23.382;2023-08-17T11:56:34;94868.72;;;29.22;33.74
78149;BME280;67396;42.664;23.382;2023-08-17T11:59:08;94852.75;;;29.13;33.96
78149;BME280;67396;42.664;23.382;2023-08-17T12:01:36;94862.81;;;29.19;33.33
78149;BME280;67396;42.664;23.382;2023-08-17T12:04:06;94852.53;;;29.22;33.22
78149;BME280;67396;42.664;23.382;2023-08-17T12:06:32;94859.50;;;29.32;33.06
78149;BME280;67396;42.664;23.382;2023-08-17T12:08:57;94852.81;;;29.35;32.52
78149;BME280;67396;42.664;23.382;2023-08-17T12:11:24;94858.47;;;29.35;32.25
78149;BME280;67396;42.664;23.382;2023-08-17T12:13:53;94850.75;;;29.30;32.85
78149;BME280;67396;42.664;23.382;2023-08-17T12:16:20;94858.69;;;29.20;32.88
78149;BME280;67396;42.664;23.382;2023-08-17T12:18:48;94844.03;;;29.16;33.36
78149;BME280;67396;42.664;23.382;2023-08-17T12:21:13;94838.66;;;29.30;33.18
78149;BME280;67396;42.664;23.382;2023-08-17T12:23:39;94852.81;;;29.35;33.26
78149;BME280;67396;42.664;23.382;2023-08-17T12:26:04;94836.16;;;29.37;34.21
78149;BME280;67396;42.664;23.382;2023-08-17T12:28:29;94843.88;;;29.42;34.13
78149;BME280;67396;42.664;23.382;2023-08-17T12:31:02;94851.06;;;29.43;33.67
78149;BME280;67396;42.664;23.382;2023-08-17T12:33:28;94848.97;;;29.38;33.54
78149;BME280;67396;42.664;23.382;2023-08-17T12:35:53;94843.88;;;29.37;33.29
78149;BME280;67396;42.664;23.382;2023-08-17T12:38:19;94839.19;;;29.34;34.09
78149;BME280;67396;42.664;23.382;2023-08-17T12:40:44;94847.16;;;29.35;33.60
78149;BME280;67396;42.664;23.382;2023-08-17T12:43:10;94837.44;;;29.36;33.45
78149;BME280;67396;42.664;23.382;2023-08-17T12:45:35;94834.06;;;29.38;34.04
78149;BME280;67396;42.664;23.382;2023-08-17T12:48:00;94844.63;;;29.37;34.21
78149;BME280;67396;42.664;23.382;2023-08-17T12:50:26;94826.13;;;29.36;34.55
78149;BME280;67396;42.664;23.382;2023-08-17T12:52:51;94839.22;;;29.39;36.25
78149;BME280;67396;42.664;23.382;2023-08-17T12:55:17;94845.63;;;29.29;37.60
78149;BME280;67396;42.664;23.382;2023-08-17T12:57:42;94843.31;;;29.33;37.61